Time;durP1;ratioP1;P1;durP2;ratioP2;P2;SDS_P1;SDS_P2;PMS_P1;PMS_P2;Temp;Humidity;BMP_temperature;BMP_pressure;BME280_temperature;BME280_humidity;BME280_pressure;Samples;Min_cycle;Max_cycle;Signal;HPM_P1;HPM_P2
2022/03/10 00:00:11;;;;;;;42.42;16.65;;;-3.10;99.90;;;;;;4176435;28;20037;-76
2022/03/10 00:02:13;;;;;;;43.45;17.60;;;-3.10;99.90;;;;;;4175570;28;20044;-57
2022/03/10 00:04:14;;;;;;;48.28;18.90;;;-3.10;99.90;;;;;;4173919;28;20103;-49
2022/03/10 00:06:16;;;;;;;39.17;16.58;;;-3.10;99.90;;;;;;4175260;28;20489;-64
2022/03/10 00:08:17;;;;;;;45.83;18.25;;;-3.10;99.90;;;;;;4175372;28;20083;-53
2022/03/10 00:10:18;;;;;;;40.30;18.45;;;-3.00;99.90;;;;;;4176010;28;20029;-57
2022/03/10 00:12:19;;;;;;;49.63;18.95;;;-3.00;99.90;;;;;;4175320;28;20118;-50
2022/03/10 00:14:20;;;;;;;49.15;18.92;;;-3.00;99.90;;;;;;4176296;28;20111;-58
2022/03/10 00:16:22;;;;;;;45.42;17.20;;;-3.00;99.90;;;;;;4174438;28;20503;-58
2022/03/10 00:18:23;;;;;;;45.72;17.80;;;-3.10;99.90;;;;;;4175846;28;20029;-61
2022/03/10 00:20:24;;;;;;;48.47;18.08;;;-3.20;99.90;;;;;;4174784;28;20090;-62
2022/03/10 00:22:25;;;;;;;42.28;16.33;;;-3.20;99.90;;;;;;4176776;28;20102;-66
2022/03/10 00:24:27;;;;;;;47.63;18.08;;;-3.20;99.90;;;;;;4175444;28;20028;-65
2022/03/10 00:26:28;;;;;;;38.13;16.67;;;-3.20;99.90;;;;;;4175922;28;20033;-45
2022/03/10 00:28:29;;;;;;;40.95;17.70;;;-3.20;99.90;;;;;;4173870;28;20044;-55
2022/03/10 00:30:30;;;;;;;40.83;17.15;;;-3.20;99.90;;;;;;4152623;28;20387;-49
2022/03/10 00:32:31;;;;;;;39.67;16.48;;;-3.20;99.90;;;;;;4158500;28;20025;-61
2022/03/10 00:34:32;;;;;;;44.75;17.17;;;-3.10;99.90;;;;;;4159613;28;20069;-47
2022/03/10 00:36:33;;;;;;;39.50;16.20;;;-3.10;99.90;;;;;;4158899;28;20037;-65
2022/03/10 00:38:34;;;;;;;35.85;14.70;;;-3.10;99.90;;;;;;4158978;28;20079;-62
2022/03/10 00:40:35;;;;;;;40.10;17.85;;;-3.20;99.90;;;;;;4159587;28;20037;-63
2022/03/10 00:42:37;;;;;;;32.05;15.30;;;-3.20;99.90;;;;;;4158085;28;20083;-64
2022/03/10 00:44:38;;;;;;;39.85;16.10;;;-3.20;99.90;;;;;;4159421;28;20508;-60
2022/03/10 00:46:39;;;;;;;37.38;16.55;;;-3.20;99.90;;;;;;4158040;28;20037;-82
2022/03/10 00:48:41;;;;;;;31.65;14.27;;;-3.20;99.90;;;;;;4159827;28;20022;-57
2022/03/10 00:50:42;;;;;;;45.65;15.65;;;-3.20;99.90;;;;;;4157227;28;20045;-48
2022/03/10 00:52:45;;;;;;;31.38;14.43;;;-3.20;99.90;;;;;;4173727;28;20559;-48
2022/03/10 00:56:51;;;;;;;30.63;14.07;;;-3.20;99.90;;;;;;4189995;28;20129;-49
2022/03/10 00:58:52;;;;;;;26.38;11.77;;;-3.10;99.90;;;;;;4189381;28;20078;-52
2022/03/10 01:00:54;;;;;;;25.15;12.10;;;-3.10;99.90;;;;;;4176427;28;20029;-57
2022/03/10 01:02:55;;;;;;;26.92;13.02;;;-3.00;99.90;;;;;;4174541;28;20528;-43
2022/03/10 01:04:56;;;;;;;24.60;11.83;;;-3.00;99.90;;;;;;4530546;22;21469;-66
2022/03/10 01:06:58;;;;;;;28.15;13.55;;;-3.00;99.90;;;;;;4206557;28;20093;-49
2022/03/10 01:08:59;;;;;;;28.75;12.27;;;-2.90;99.90;;;;;;4207324;28;20040;-55
2022/03/10 01:11:00;;;;;;;31.52;12.27;;;-2.90;99.90;;;;;;4190378;28;20078;-62
2022/03/10 01:13:01;;;;;;;32.47;12.15;;;-3.00;99.90;;;;;;4207146;28;20098;-52
2022/03/10 01:15:03;;;;;;;29.85;12.48;;;-3.00;99.90;;;;;;4209255;28;20096;-47
2022/03/10 01:17:04;;;;;;;23.67;12.02;;;-3.00;99.90;;;;;;4189541;28;20106;-52
2022/03/10 01:19:08;;;;;;;29.60;12.90;;;-3.00;99.90;;;;;;4208583;28;20032;-63
2022/03/10 01:21:09;;;;;;;28.85;12.57;;;-3.00;99.90;;;;;;4207544;28;20473;-61
2022/03/10 01:23:10;;;;;;;30.40;13.77;;;-3.00;99.90;;;;;;4209306;28;20032;-55
2022/03/10 01:25:12;;;;;;;33.53;13.65;;;-3.10;99.90;;;;;;4207652;28;20028;-49
2022/03/10 01:27:13;;;;;;;28.33;13.55;;;-3.10;99.90;;;;;;4190128;28;20040;-48
2022/03/10 01:29:14;;;;;;;29.02;13.73;;;-3.10;99.90;;;;;;4207882;28;20077;-55
2022/03/10 01:31:16;;;;;;;30.02;13.98;;;-3.10;99.90;;;;;;4207745;28;20298;-69
2022/03/10 01:33:17;;;;;;;28.23;13.20;;;-3.20;99.90;;;;;;4207845;28;20395;-48
2022/03/10 01:35:18;;;;;;;31.17;13.02;;;-3.20;99.90;;;;;;4206977;28;20024;-53
2022/03/10 01:37:20;;;;;;;26.02;12.18;;;-3.10;99.90;;;;;;4207849;28;20044;-54
2022/03/10 01:39:21;;;;;;;25.60;12.25;;;-3.10;99.90;;;;;;4207578;28;20024;-49
2022/03/10 01:41:22;;;;;;;24.05;11.50;;;-3.00;99.90;;;;;;4208193;28;20028;-48
2022/03/10 01:43:23;;;;;;;28.08;10.88;;;-3.00;99.90;;;;;;4207175;28;20036;-55
2022/03/10 01:45:24;;;;;;;24.10;11.93;;;-3.00;99.90;;;;;;4208487;28;20085;-55
2022/03/10 01:47:25;;;;;;;27.75;12.60;;;-2.90;99.90;;;;;;4206616;28;20089;-60
2022/03/10 01:49:28;;;;;;;28.92;13.25;;;-3.00;99.90;;;;;;4208429;28;20040;-63
2022/03/10 01:51:29;;;;;;;32.47;12.90;;;-3.00;99.90;;;;;;4206709;28;20033;-45
2022/03/10 01:53:30;;;;;;;29.48;11.35;;;-3.00;99.90;;;;;;4208474;28;20061;-58
2022/03/10 01:55:32;;;;;;;28.73;11.40;;;-3.00;99.90;;;;;;4206786;28;20476;-56
2022/03/10 01:57:33;;;;;;;27.83;12.45;;;-3.00;99.90;;;;;;4207900;28;20446;-62
2022/03/10 01:59:34;;;;;;;25.10;11.77;;;-3.00;99.90;;;;;;4207497;28;20077;-64
2022/03/10 02:01:36;;;;;;;27.08;11.68;;;-3.00;99.90;;;;;;4206802;28;20035;-56
2022/03/10 02:03:38;;;;;;;26.08;11.10;;;-3.00;99.90;;;;;;4188950;28;20045;-57
2022/03/10 02:05:39;;;;;;;21.45;10.85;;;-3.00;99.90;;;;;;4207244;28;20560;-58
2022/03/10 02:10:18;;;;;;;23.52;10.35;;;-3.00;99.90;;;;;;4206854;28;20089;-71
2022/03/10 02:12:20;;;;;;;23.75;10.77;;;-2.90;99.90;;;;;;4206796;28;20028;-56
2022/03/10 02:19:00;;;;;;;24.75;10.70;;;-3.00;99.90;;;;;;4207365;28;20081;-71
2022/03/10 02:21:02;;;;;;;23.83;10.40;;;-3.00;99.90;;;;;;4188604;28;20544;-56
2022/03/10 02:23:04;;;;;;;23.35;10.38;;;-3.00;99.90;;;;;;4207275;28;20261;-58
2022/03/10 02:25:07;;;;;;;24.63;10.45;;;-3.00;99.90;;;;;;4207533;28;20066;-54
2022/03/10 02:27:20;;;;;;;19.42;9.90;;;-3.00;99.90;;;;;;4206216;28;20043;-56
2022/03/10 02:29:21;;;;;;;23.75;10.35;;;-3.00;99.90;;;;;;4189611;28;20085;-56
2022/03/10 02:31:22;;;;;;;24.95;10.38;;;-3.10;99.90;;;;;;4206471;28;20373;-46
2022/03/10 02:33:23;;;;;;;21.38;9.25;;;-3.10;99.90;;;;;;4207968;28;20040;-59
2022/03/10 02:35:25;;;;;;;19.27;8.65;;;-3.10;99.90;;;;;;4206242;28;20054;-63
2022/03/10 02:37:26;;;;;;;19.55;9.32;;;-3.10;99.90;;;;;;4209184;28;20521;-48
2022/03/10 02:39:27;;;;;;;18.88;8.60;;;-3.10;99.90;;;;;;4205793;28;20032;-63
2022/03/10 02:41:28;;;;;;;20.52;8.82;;;-3.10;99.90;;;;;;4207581;28;20090;-50
2022/03/10 02:43:31;;;;;;;19.42;8.32;;;-3.10;99.90;;;;;;4187972;28;20036;-60
2022/03/10 02:45:32;;;;;;;25.38;9.35;;;-3.10;99.90;;;;;;4207948;28;20094;-68
2022/03/10 02:47:34;;;;;;;19.67;9.10;;;-3.10;99.90;;;;;;4205476;28;20036;-62
2022/03/10 02:49:36;;;;;;;20.92;9.55;;;-3.10;99.90;;;;;;4189306;28;20037;-63
2022/03/10 02:51:37;;;;;;;18.92;8.77;;;-3.10;99.90;;;;;;4206373;28;20028;-65
2022/03/10 02:53:38;;;;;;;19.55;8.15;;;-3.10;99.90;;;;;;4188420;28;20857;-52
2022/03/10 02:55:40;;;;;;;18.58;8.63;;;-3.10;99.90;;;;;;4206915;28;20028;-51
2022/03/10 02:57:41;;;;;;;21.83;8.57;;;-3.10;99.90;;;;;;4188170;28;20113;-62
2022/03/10 02:59:42;;;;;;;18.15;8.80;;;-3.20;99.90;;;;;;4207141;28;20430;-53
2022/03/10 03:01:43;;;;;;;14.93;7.20;;;-3.10;99.90;;;;;;4206051;28;20370;-65
2022/03/10 03:03:45;;;;;;;15.90;7.50;;;-3.10;99.90;;;;;;4207123;28;20089;-45
2022/03/10 03:05:46;;;;;;;17.67;7.82;;;-3.10;99.90;;;;;;4205121;28;20117;-54
2022/03/10 03:07:50;;;;;;;16.42;7.30;;;-3.10;99.90;;;;;;4208339;28;20040;-58
2022/03/10 03:09:51;;;;;;;20.45;8.73;;;-3.10;99.90;;;;;;4206071;28;20032;-62
2022/03/10 03:11:52;;;;;;;14.60;7.80;;;-3.20;99.90;;;;;;4207797;28;20032;-61
2022/03/10 03:13:54;;;;;;;15.88;7.07;;;-3.10;99.90;;;;;;4208010;28;20089;-60
2022/03/10 03:15:55;;;;;;;15.88;7.70;;;-3.20;99.90;;;;;;4211512;28;20020;-59
2022/03/10 03:17:57;;;;;;;17.52;8.10;;;-3.20;99.90;;;;;;4208227;28;20105;-54
2022/03/10 03:19:58;;;;;;;12.45;7.40;;;-3.20;99.90;;;;;;4210996;28;20077;-44
2022/03/10 03:22:00;;;;;;;14.48;6.95;;;-3.20;99.90;;;;;;4209728;28;20061;-51
2022/03/10 03:24:01;;;;;;;19.15;7.70;;;-3.20;99.90;;;;;;4210625;28;20028;-74
2022/03/10 03:26:02;;;;;;;17.85;7.35;;;-3.20;99.90;;;;;;4190693;28;20090;-50
2022/03/10 03:28:04;;;;;;;17.98;8.23;;;-3.20;99.90;;;;;;4191096;28;20542;-47
2022/03/10 03:30:05;;;;;;;17.02;7.53;;;-3.30;99.90;;;;;;4210377;28;20021;-59
2022/03/10 03:32:07;;;;;;;16.42;7.72;;;-3.30;99.90;;;;;;4209122;28;20036;-55
2022/03/10 03:34:11;;;;;;;14.50;7.03;;;-3.30;99.90;;;;;;4210158;28;20035;-64
2022/03/10 03:36:12;;;;;;;14.80;7.10;;;-3.30;99.90;;;;;;4209425;28;20085;-53
2022/03/10 03:38:13;;;;;;;15.75;7.10;;;-3.30;99.90;;;;;;4210744;28;20476;-70
2022/03/10 03:40:14;;;;;;;16.13;7.60;;;-3.40;99.90;;;;;;4207984;28;20097;-53
2022/03/10 03:42:15;;;;;;;16.42;7.15;;;-3.30;99.90;;;;;;4210623;28;20066;-62
2022/03/10 03:44:16;;;;;;;14.00;7.22;;;-3.40;99.90;;;;;;4208799;28;20028;-67
2022/03/10 03:46:17;;;;;;;16.60;7.18;;;-3.40;99.90;;;;;;4210463;28;20039;-53
2022/03/10 03:48:18;;;;;;;15.93;6.85;;;-3.40;99.90;;;;;;4209601;28;20545;-62
2022/03/10 03:50:20;;;;;;;12.15;6.38;;;-3.30;99.90;;;;;;4191502;28;20078;-46
2022/03/10 03:52:21;;;;;;;16.77;6.60;;;-3.30;99.90;;;;;;4208810;28;20032;-62
2022/03/10 03:54:24;;;;;;;21.73;6.78;;;-3.30;99.90;;;;;;4209798;28;20028;-49
2022/03/10 03:56:25;;;;;;;17.52;7.95;;;-3.40;99.90;;;;;;4190662;28;20044;-55
2022/03/10 03:58:26;;;;;;;15.13;8.25;;;-3.40;99.90;;;;;;4190425;28;20302;-56
2022/03/10 04:00:27;;;;;;;15.82;7.22;;;-3.40;99.90;;;;;;4209532;28;20081;-80
2022/03/10 04:02:30;;;;;;;17.48;7.70;;;-3.40;99.90;;;;;;4208725;28;20028;-49
2022/03/10 04:04:32;;;;;;;16.08;6.63;;;-3.40;99.90;;;;;;4209920;28;20112;-48
2022/03/10 04:06:34;;;;;;;16.30;8.27;;;-3.40;99.90;;;;;;4208301;28;20361;-45
2022/03/10 04:08:35;;;;;;;16.42;6.88;;;-3.50;99.90;;;;;;4209851;28;20028;-48
2022/03/10 04:10:37;;;;;;;20.42;7.43;;;-3.50;99.90;;;;;;4189973;28;20032;-47
2022/03/10 04:12:38;;;;;;;17.70;8.05;;;-3.50;99.90;;;;;;4209638;28;20445;-75
2022/03/10 04:14:39;;;;;;;15.88;7.22;;;-3.50;99.90;;;;;;4208407;28;20465;-50
2022/03/10 04:16:40;;;;;;;20.92;7.38;;;-3.50;99.90;;;;;;4190613;28;20098;-50
2022/03/10 04:18:41;;;;;;;20.90;8.38;;;-3.60;99.90;;;;;;4189234;28;20072;-65
2022/03/10 04:20:43;;;;;;;22.52;9.00;;;-3.60;99.90;;;;;;4208994;28;20153;-58
2022/03/10 04:22:44;;;;;;;25.52;8.63;;;-3.60;99.90;;;;;;4208675;28;20028;-62
2022/03/10 04:24:46;;;;;;;24.15;9.05;;;-3.60;99.90;;;;;;4209579;28;20628;-64
2022/03/10 04:26:47;;;;;;;15.68;7.63;;;-3.70;99.90;;;;;;4208408;28;20456;-75
2022/03/10 04:28:48;;;;;;;15.93;6.68;;;-3.70;99.90;;;;;;4208576;28;20036;-48
2022/03/10 04:30:49;;;;;;;22.55;8.95;;;-3.70;99.90;;;;;;4209309;28;20024;-54
2022/03/10 04:32:51;;;;;;;24.52;8.85;;;-3.70;99.90;;;;;;4190145;28;20838;-43
2022/03/10 04:34:52;;;;;;;40.10;12.95;;;-3.70;99.90;;;;;;4209120;28;20533;-58
2022/03/10 04:36:53;;;;;;;43.40;16.05;;;-3.70;99.90;;;;;;4207626;28;20078;-42
2022/03/10 04:38:54;;;;;;;26.15;10.82;;;-3.70;99.90;;;;;;4209190;28;20089;-51
2022/03/10 04:40:55;;;;;;;15.35;7.75;;;-3.70;99.90;;;;;;4207958;28;20085;-48
2022/03/10 04:42:56;;;;;;;14.80;7.07;;;-3.70;99.90;;;;;;4209151;28;20086;-59
2022/03/10 04:44:57;;;;;;;16.73;7.40;;;-3.70;99.90;;;;;;4208150;28;20133;-53
2022/03/10 04:46:59;;;;;;;18.17;7.53;;;-3.70;99.90;;;;;;4208897;28;20089;-65
2022/03/10 04:49:00;;;;;;;16.10;8.00;;;-3.70;99.90;;;;;;4189033;28;20036;-69
2022/03/10 04:51:01;;;;;;;15.80;7.60;;;-3.70;99.90;;;;;;4209017;28;20020;-44
2022/03/10 04:53:02;;;;;;;13.27;6.78;;;-3.70;99.90;;;;;;4208206;28;20517;-53
2022/03/10 04:55:04;;;;;;;16.05;7.32;;;-3.60;99.90;;;;;;4209116;28;20031;-74
2022/03/10 04:57:05;;;;;;;18.58;8.15;;;-3.60;99.90;;;;;;4199548;28;20155;-49
2022/03/10 04:59:06;;;;;;;22.25;9.00;;;-3.60;99.90;;;;;;4207903;28;20089;-63
2022/03/10 05:01:07;;;;;;;25.10;9.75;;;-3.60;99.90;;;;;;4207182;28;20015;-68
2022/03/10 05:03:08;;;;;;;21.02;9.25;;;-3.60;99.90;;;;;;4207593;28;20762;-44
2022/03/10 05:05:12;;;;;;;26.27;10.13;;;-3.60;99.90;;;;;;4189614;28;20094;-62
2022/03/10 05:07:13;;;;;;;23.38;10.52;;;-3.60;99.90;;;;;;4206944;28;20020;-49
2022/03/10 05:09:14;;;;;;;22.48;9.93;;;-3.60;99.90;;;;;;4208454;28;20032;-56
2022/03/10 05:11:16;;;;;;;24.65;11.77;;;-3.60;99.90;;;;;;4299444;22;20053;-47
2022/03/10 05:13:18;;;;;;;25.38;10.82;;;-3.60;99.90;;;;;;4157181;28;20049;-76
2022/03/10 05:15:21;;;;;;;34.63;11.27;;;-3.60;99.90;;;;;;4170482;28;20899;-46
2022/03/10 05:17:23;;;;;;;49.78;14.57;;;-3.70;99.90;;;;;;4161602;28;20095;-63
2022/03/10 05:19:25;;;;;;;25.33;10.68;;;-3.80;99.90;;;;;;4164878;28;20429;-58
2022/03/10 05:21:26;;;;;;;29.33;9.70;;;-3.80;99.90;;;;;;4168197;28;20045;-68
2022/03/10 05:23:27;;;;;;;25.20;9.23;;;-3.90;99.90;;;;;;4161765;28;20541;-61
2022/03/10 05:25:36;;;;;;;23.10;9.90;;;-3.90;99.90;;;;;;4165697;28;20029;-57
2022/03/10 05:27:37;;;;;;;22.20;8.20;;;-3.80;99.90;;;;;;4165700;28;20143;-53
2022/03/10 05:29:40;;;;;;;23.38;10.57;;;-3.80;99.90;;;;;;4160823;28;20139;-63
2022/03/10 05:31:41;;;;;;;19.27;8.13;;;-3.70;99.90;;;;;;4160507;28;20083;-53
2022/03/10 05:33:42;;;;;;;23.42;8.85;;;-3.70;99.90;;;;;;4158008;28;20042;-59
2022/03/10 05:35:44;;;;;;;16.75;8.23;;;-3.70;99.90;;;;;;4173139;28;20029;-58
2022/03/10 05:37:46;;;;;;;23.65;9.07;;;-3.70;99.90;;;;;;4172994;28;20056;-65
2022/03/10 05:39:47;;;;;;;20.10;8.60;;;-3.70;99.90;;;;;;4173506;28;20408;-53
2022/03/10 05:41:48;;;;;;;34.47;12.48;;;-3.70;99.90;;;;;;4166362;28;20045;-44
2022/03/10 05:43:49;;;;;;;37.95;13.93;;;-3.60;99.90;;;;;;4159913;28;20033;-59
2022/03/10 05:45:50;;;;;;;37.70;15.57;;;-3.30;99.90;;;;;;4172540;28;20087;-50
2022/03/10 05:47:54;;;;;;;27.23;12.77;;;-2.90;99.90;;;;;;4173517;28;20102;-46
2022/03/10 05:49:55;;;;;;;25.58;12.27;;;-2.70;99.90;;;;;;4172384;28;20025;-79
2022/03/10 05:51:56;;;;;;;31.17;12.83;;;-2.30;99.90;;;;;;4173923;28;20017;-58
2022/03/10 05:53:58;;;;;;;32.30;12.23;;;-2.00;99.90;;;;;;4161061;28;20282;-70
2022/03/10 05:55:59;;;;;;;25.07;11.33;;;-1.50;99.90;;;;;;4158523;28;20263;-66
2022/03/10 05:58:00;;;;;;;28.33;13.07;;;-1.10;99.90;;;;;;4169494;28;20301;-63
2022/03/10 06:00:01;;;;;;;23.07;9.67;;;-0.80;99.90;;;;;;4173977;28;20736;-55
2022/03/10 06:02:02;;;;;;;29.33;13.03;;;-0.50;99.20;;;;;;4172652;28;20307;-54
2022/03/10 06:04:04;;;;;;;22.00;10.40;;;0.00;99.90;;;;;;4173888;28;20262;-56
2022/03/10 06:06:05;;;;;;;18.00;9.13;;;0.40;99.50;;;;;;4172812;28;20702;-58
2022/03/10 06:08:06;;;;;;;25.50;12.00;;;0.70;98.60;;;;;;4174046;28;20262;-55
2022/03/10 06:10:08;;;;;;;25.33;12.90;;;0.40;97.70;;;;;;4172175;28;20634;-61
2022/03/10 06:12:09;;;;;;;36.97;13.73;;;0.10;97.70;;;;;;4172498;28;20332;-49
2022/03/10 06:14:11;;;;;;;29.23;14.57;;;-0.30;97.60;;;;;;4171201;28;21018;-49
2022/03/10 06:16:12;;;;;;;37.20;12.93;;;-0.50;98.50;;;;;;4173990;28;20274;-69
2022/03/10 06:18:13;;;;;;;29.00;14.13;;;-0.90;98.50;;;;;;4173099;28;20343;-56
2022/03/10 06:20:14;;;;;;;38.83;14.83;;;-1.10;98.90;;;;;;4173674;28;20396;-60
2022/03/10 06:22:20;;;;;;;44.70;16.90;;;-1.30;99.00;;;;;;4173389;28;20258;-47
2022/03/10 06:24:21;;;;;;;49.40;16.23;;;-1.40;99.30;;;;;;4173740;28;20270;-43
2022/03/10 06:26:22;;;;;;;37.90;15.63;;;-1.40;99.60;;;;;;4173700;28;20266;-62
2022/03/10 06:28:23;;;;;;;39.70;16.67;;;-1.50;99.80;;;;;;4172149;28;20266;-50
2022/03/10 06:30:25;;;;;;;36.40;15.40;;;-1.50;99.90;;;;;;4173795;28;20262;-56
2022/03/10 06:32:26;;;;;;;36.70;14.50;;;-1.60;99.90;;;;;;4172483;28;20274;-51
2022/03/10 06:34:27;;;;;;;37.13;14.10;;;-1.60;99.90;;;;;;4169629;28;20285;-70
2022/03/10 06:36:28;;;;;;;34.50;11.77;;;-1.50;99.90;;;;;;4157176;28;20753;-47
2022/03/10 06:38:29;;;;;;;24.93;11.77;;;-1.50;99.90;;;;;;4157760;28;20699;-65
2022/03/10 06:40:30;;;;;;;30.93;12.60;;;-1.60;99.90;;;;;;4217716;22;20316;-57
2022/03/10 06:42:32;;;;;;;35.80;12.30;;;-1.60;99.90;;;;;;4171257;28;20270;-59
2022/03/10 06:44:36;;;;;;;31.57;11.33;;;-1.50;99.90;;;;;;4151023;28;20283;-86
2022/03/10 06:46:37;;;;;;;25.97;9.70;;;-1.40;99.90;;;;;;4143030;28;20276;-54
2022/03/10 06:48:38;;;;;;;25.40;10.13;;;-1.30;99.90;;;;;;4156916;28;20282;-85
2022/03/10 06:50:40;;;;;;;33.07;14.37;;;-1.30;99.80;;;;;;4170821;28;20265;-91
2022/03/10 06:52:41;;;;;;;25.70;10.87;;;-1.20;99.80;;;;;;4175221;28;20758;-75
2022/03/10 06:54:42;;;;;;;20.33;9.10;;;-1.10;99.70;;;;;;4174811;28;20266;-47
2022/03/10 06:56:44;;;;;;;25.10;9.30;;;-1.00;99.60;;;;;;4160710;28;20270;-58
2022/03/10 06:58:45;;;;;;;17.30;8.10;;;-0.90;99.60;;;;;;4156530;28;20344;-74
2022/03/10 07:00:46;;;;;;;15.70;7.93;;;-0.80;99.60;;;;;;4156340;28;20255;-51
2022/03/10 07:02:48;;;;;;;18.53;8.20;;;-0.80;99.20;;;;;;4158632;28;20676;-80
2022/03/10 07:04:49;;;;;;;12.90;6.50;;;-0.70;99.00;;;;;;4157728;28;20274;-74
2022/03/10 07:06:50;;;;;;;18.43;8.33;;;-0.50;98.70;;;;;;4158376;28;20267;-92
2022/03/10 07:08:52;;;;;;;15.97;7.67;;;-0.30;98.70;;;;;;4157848;28;20336;-91
2022/03/10 07:10:53;;;;;;;14.00;6.80;;;-0.10;98.30;;;;;;4159375;28;20332;-92
2022/03/10 07:12:56;;;;;;;13.80;7.27;;;0.00;97.70;;;;;;4158970;28;20727;-58
2022/03/10 07:14:58;;;;;;;14.50;7.87;;;0.10;97.40;;;;;;4157225;28;20792;-44
2022/03/10 07:16:59;;;;;;;22.77;7.70;;;0.30;97.30;;;;;;4159165;28;21177;-86
2022/03/10 07:19:00;;;;;;;15.00;6.53;;;0.40;97.00;;;;;;4139266;28;20337;-83
2022/03/10 07:21:02;;;;;;;14.93;6.60;;;0.70;96.30;;;;;;4159261;28;20274;-65
2022/03/10 07:23:03;;;;;;;13.40;5.93;;;0.80;95.90;;;;;;4156988;28;20267;-57
2022/03/10 07:25:05;;;;;;;14.00;5.90;;;1.00;95.40;;;;;;4158657;28;20283;-89
2022/03/10 07:27:07;;;;;;;8.83;4.37;;;1.20;95.30;;;;;;4156155;28;20352;-64
2022/03/10 07:29:08;;;;;;;8.20;3.83;;;1.40;94.90;;;;;;4157043;28;20280;-83
2022/03/10 07:31:09;;;;;;;8.13;4.10;;;1.70;93.40;;;;;;4137049;28;20345;-56
2022/03/10 07:33:11;;;;;;;9.00;3.63;;;1.80;92.80;;;;;;4123428;28;20295;-52
2022/03/10 07:35:12;;;;;;;7.60;3.57;;;1.90;91.80;;;;;;4139659;28;20342;-58
2022/03/10 07:37:16;;;;;;;11.97;3.90;;;2.10;91.30;;;;;;4140840;28;20287;-43
2022/03/10 07:39:17;;;;;;;10.33;4.03;;;2.10;90.90;;;;;;4155158;28;20294;-64
2022/03/10 07:41:18;;;;;;;7.17;3.77;;;2.20;91.00;;;;;;4146987;28;20295;-73
2022/03/10 07:43:19;;;;;;;10.23;3.80;;;2.10;87.50;;;;;;4155794;28;20271;-54
2022/03/10 07:45:21;;;;;;;9.37;4.50;;;2.10;88.30;;;;;;4155995;28;20328;-43
2022/03/10 07:47:22;;;;;;;9.13;3.80;;;1.80;88.40;;;;;;4529845;22;20302;-69
2022/03/10 07:49:23;;;;;;;9.10;4.13;;;1.60;87.90;;;;;;4167816;28;20312;-78
2022/03/10 07:51:25;;;;;;;7.17;4.03;;;1.40;86.30;;;;;;4161357;28;20304;-54
2022/03/10 07:53:26;;;;;;;4.77;2.50;;;1.20;85.70;;;;;;4253921;23;20295;-40
2022/03/10 07:55:28;;;;;;;7.20;3.73;;;0.80;84.70;;;;;;4191366;28;20289;-61
2022/03/10 07:57:29;;;;;;;9.30;3.87;;;0.70;84.40;;;;;;4190832;28;20327;-65
2022/03/10 07:59:30;;;;;;;9.97;3.33;;;0.50;83.30;;;;;;4359412;23;20301;-64
2022/03/10 08:01:31;;;;;;;6.83;2.73;;;0.20;83.70;;;;;;4191177;28;20315;-51
2022/03/10 08:03:32;;;;;;;6.83;3.10;;;0.10;83.20;;;;;;4192551;28;20367;-64
2022/03/10 08:05:34;;;;;;;5.17;2.50;;;0.10;82.50;;;;;;4192000;28;20306;-58
2022/03/10 08:07:35;;;;;;;7.77;2.63;;;0.10;83.00;;;;;;4192036;28;20285;-67
2022/03/10 08:09:37;;;;;;;5.37;2.83;;;0.10;82.80;;;;;;4192359;28;20713;-53
2022/03/10 08:11:41;;;;;;;3.60;2.37;;;0.10;83.30;;;;;;4173962;28;20745;-50
2022/03/10 08:13:43;;;;;;;5.90;2.73;;;0.00;81.70;;;;;;4192215;28;20346;-58
2022/03/10 08:15:44;;;;;;;6.20;2.37;;;0.20;83.10;;;;;;4191146;28;20273;-65
2022/03/10 08:17:45;;;;;;;3.83;3.03;;;0.50;82.00;;;;;;4192366;28;20319;-59
2022/03/10 08:19:46;;;;;;;7.77;3.00;;;0.60;79.40;;;;;;4190964;28;20289;-56
2022/03/10 08:21:48;;;;;;;6.43;3.57;;;0.80;81.30;;;;;;4192329;28;20273;-57
2022/03/10 08:23:50;;;;;;;11.60;3.40;;;0.80;80.90;;;;;;4172595;28;20328;-59
2022/03/10 08:25:51;;;;;;;6.53;3.20;;;1.00;80.90;;;;;;4192799;28;20281;-57
2022/03/10 08:27:52;;;;;;;8.73;4.07;;;0.80;79.20;;;;;;4190840;28;20323;-78
2022/03/10 08:29:54;;;;;;;5.73;3.30;;;0.80;78.50;;;;;;4192171;28;20277;-78
2022/03/10 08:31:55;;;;;;;7.23;3.37;;;0.70;78.50;;;;;;4191142;28;20745;-61
2022/03/10 08:33:56;;;;;;;6.20;3.23;;;0.60;79.80;;;;;;4186154;28;20273;-50
2022/03/10 08:35:57;;;;;;;8.30;3.83;;;0.70;80.10;;;;;;4175031;28;20250;-46
2022/03/10 08:37:59;;;;;;;4.67;2.90;;;0.70;77.80;;;;;;4184602;28;20261;-61
2022/03/10 08:40:00;;;;;;;6.07;3.60;;;0.60;78.80;;;;;;4172823;28;20286;-64
2022/03/10 08:42:02;;;;;;;6.30;3.37;;;0.60;79.00;;;;;;4173721;28;20332;-54
2022/03/10 08:44:03;;;;;;;5.47;2.70;;;0.60;78.10;;;;;;4192024;28;20269;-69
2022/03/10 08:46:05;;;;;;;3.90;2.53;;;0.60;78.00;;;;;;4191507;28;20265;-91
2022/03/10 08:48:07;;;;;;;4.03;2.47;;;0.60;78.80;;;;;;4174293;28;20344;-46
2022/03/10 08:50:09;;;;;;;5.87;2.87;;;0.50;78.60;;;;;;4191637;28;20282;-59
2022/03/10 08:52:11;;;;;;;3.63;2.07;;;0.50;78.30;;;;;;4192395;28;20342;-65
2022/03/10 08:54:12;;;;;;;4.53;2.50;;;0.50;77.20;;;;;;4172378;28;20277;-78
2022/03/10 08:56:13;;;;;;;4.30;2.70;;;0.50;78.10;;;;;;4192991;28;20269;-73
2022/03/10 08:58:14;;;;;;;6.50;2.73;;;0.60;77.10;;;;;;4191576;28;20289;-72
2022/03/10 09:00:20;;;;;;;4.63;2.70;;;0.70;78.30;;;;;;4175798;28;20655;-84
2022/03/10 09:02:21;;;;;;;7.07;2.83;;;0.90;77.10;;;;;;4173147;28;20332;-77
2022/03/10 09:04:22;;;;;;;6.97;2.50;;;1.10;77.10;;;;;;4193012;28;20749;-53
2022/03/10 09:06:24;;;;;;;4.30;2.40;;;1.10;75.00;;;;;;4190819;28;20318;-51
2022/03/10 09:08:25;;;;;;;3.90;1.90;;;1.20;75.40;;;;;;4192020;28;20265;-43
2022/03/10 09:10:26;;;;;;;6.07;3.23;;;1.10;75.40;;;;;;4190754;28;20269;-58
2022/03/10 09:12:27;;;;;;;10.20;4.13;;;1.10;75.40;;;;;;4185703;28;20319;-50
2022/03/10 09:14:28;;;;;;;4.40;2.50;;;1.10;72.70;;;;;;4183713;28;21199;-60
2022/03/10 09:16:30;;;;;;;5.40;2.60;;;0.90;70.10;;;;;;4180937;28;20261;-45
2022/03/10 09:18:31;;;;;;;5.17;2.33;;;0.90;71.30;;;;;;4175700;28;20290;-74
2022/03/10 09:20:32;;;;;;;6.77;2.10;;;1.00;71.40;;;;;;4155470;28;20908;-57
2022/03/10 09:22:33;;;;;;;6.13;1.83;;;1.20;72.20;;;;;;4157440;28;20442;-71
2022/03/10 09:24:34;;;;;;;4.03;2.13;;;1.40;70.50;;;;;;4174364;28;20664;-73
2022/03/10 09:26:35;;;;;;;4.30;2.20;;;1.80;70.50;;;;;;4205853;23;20375;-77
2022/03/10 09:28:37;;;;;;;2.60;1.57;;;2.00;68.70;;;;;;4165364;28;20266;-66
2022/03/10 09:30:38;;;;;;;4.73;2.03;;;1.60;66.00;;;;;;4175047;28;20347;-44
2022/03/10 09:32:41;;;;;;;5.70;2.00;;;1.50;67.30;;;;;;4174569;28;20649;-62
2022/03/10 09:34:43;;;;;;;3.00;1.70;;;1.70;68.90;;;;;;4159522;28;20286;-45
2022/03/10 09:36:44;;;;;;;3.50;1.53;;;1.90;68.40;;;;;;4174137;28;20323;-56
2022/03/10 09:38:45;;;;;;;6.20;2.00;;;2.10;68.00;;;;;;4165981;28;20310;-42
2022/03/10 09:40:52;;;;;;;4.00;2.17;;;2.40;67.50;;;;;;4167835;28;20266;-59
2022/03/10 09:42:55;;;;;;;3.87;1.93;;;2.60;65.20;;;;;;4157471;28;20279;-71
2022/03/10 09:44:58;;;;;;;4.80;2.07;;;2.40;64.90;;;;;;4158371;28;20670;-63
2022/03/10 09:47:03;;;;;;;3.13;2.07;;;2.00;64.00;;;;;;4154605;28;20333;-87
2022/03/10 09:49:04;;;;;;;5.73;2.40;;;1.60;65.40;;;;;;4156026;28;20329;-57
2022/03/10 09:51:06;;;;;;;2.43;1.70;;;1.60;65.60;;;;;;4156723;28;20297;-48
2022/03/10 09:53:08;;;;;;;6.27;2.30;;;1.30;63.90;;;;;;4156813;28;20273;-80
2022/03/10 09:55:10;;;;;;;6.83;2.23;;;1.10;65.00;;;;;;4164546;28;20812;-58
2022/03/10 09:57:14;;;;;;;5.03;2.20;;;1.00;66.30;;;;;;4331583;22;20317;-84
2022/03/10 10:01:55;;;;;;;4.80;2.30;;;0.90;65.90;;;;;;4175343;22;20782;-64
2022/03/10 10:03:57;;;;;;;4.77;2.70;;;0.80;65.80;;;;;;4164211;28;20351;-52
2022/03/10 10:06:00;;;;;;;5.40;2.47;;;0.90;66.70;;;;;;4173104;28;20332;-66
2022/03/10 10:08:10;;;;;;;4.67;3.03;;;1.00;66.60;;;;;;4162525;28;20290;-60
2022/03/10 10:10:11;;;;;;;7.30;2.70;;;1.20;65.40;;;;;;4157893;28;20279;-63
2022/03/10 10:12:14;;;;;;;5.03;2.37;;;1.20;64.10;;;;;;4155528;28;20274;-48
2022/03/10 10:14:39;;;;;;;4.27;2.33;;;1.20;64.30;;;;;;4158119;28;20759;-57
2022/03/10 10:16:50;;;;;;;4.73;1.97;;;1.20;63.30;;;;;;4154450;28;20896;-65
2022/03/10 10:18:58;;;;;;;;;;;1.30;63.00;;;;;;4156382;28;20341;-58
2022/03/10 10:21:00;;;;;;;6.30;1.77;;;1.30;62.70;;;;;;4162893;28;19909;-61
2022/03/10 10:23:16;;;;;;;4.47;1.90;;;1.40;62.40;;;;;;4174658;28;21226;-62
2022/03/10 10:25:21;;;;;;;3.73;2.27;;;1.30;61.50;;;;;;4173192;28;20261;-58
2022/03/10 10:27:25;;;;;;;7.03;3.17;;;1.20;61.60;;;;;;4165455;28;21044;-56
2022/03/10 10:29:28;;;;;;;5.97;3.10;;;1.30;62.20;;;;;;4173528;28;20315;-64
2022/03/10 10:31:29;;;;;;;6.47;2.20;;;1.20;62.00;;;;;;4174376;28;20266;-67
2022/03/10 10:33:33;;;;;;;2.67;1.90;;;1.20;63.40;;;;;;4171135;28;20846;-68
2022/03/10 10:35:34;;;;;;;7.20;2.10;;;1.20;63.20;;;;;;4174549;28;20608;-68
2022/03/10 10:37:40;;;;;;;4.93;2.63;;;1.20;64.10;;;;;;4164357;28;20274;-55
2022/03/10 10:39:55;;;;;;;3.57;2.10;;;1.30;63.70;;;;;;4156990;28;20357;-60